createdAt,value
2018-06-04T00:00:01.256Z,16.10
2018-06-04T00:02:29.682Z,16.10
2018-06-04T00:04:58.088Z,16.10
2018-06-04T00:07:26.536Z,16.10
2018-06-04T00:09:54.951Z,16.10
2018-06-04T00:12:23.400Z,16.10
2018-06-04T00:14:51.821Z,16.00
2018-06-04T00:17:20.258Z,16.00
2018-06-04T00:19:48.645Z,16.10
2018-06-04T00:22:17.077Z,16.10
2018-06-04T00:24:45.476Z,16.00
2018-06-04T00:27:13.929Z,16.00
2018-06-04T00:29:42.354Z,16.00
2018-06-04T00:32:10.791Z,16.00
2018-06-04T00:34:39.197Z,15.90
2018-06-04T00:37:07.638Z,15.90
2018-06-04T00:39:36.028Z,15.90
2018-06-04T00:42:04.432Z,15.80
2018-06-04T00:44:32.841Z,15.70
2018-06-04T00:47:01.297Z,15.60
2018-06-04T00:49:29.743Z,15.60
2018-06-04T00:51:58.146Z,15.50
2018-06-04T00:54:26.597Z,15.40
2018-06-04T00:56:55.013Z,15.40
2018-06-04T00:59:23.439Z,15.30
2018-06-04T01:01:52.693Z,15.30
2018-06-04T01:04:21.133Z,15.20
2018-06-04T01:06:49.557Z,15.20
2018-06-04T01:09:18.009Z,15.20
2018-06-04T01:11:46.425Z,15.20
2018-06-04T01:14:14.860Z,15.20
2018-06-04T01:16:43.250Z,15.20
2018-06-04T01:19:11.668Z,15.20
2018-06-04T01:21:40.158Z,15.10
2018-06-04T01:24:08.591Z,15.10
2018-06-04T01:26:37.405Z,15.10
2018-06-04T01:29:05.846Z,15.00
2018-06-04T01:31:34.253Z,15.00
2018-06-04T01:34:02.708Z,15.00
2018-06-04T01:36:31.133Z,15.00
2018-06-04T01:38:59.550Z,15.00
2018-06-04T01:41:27.962Z,15.00
2018-06-04T01:43:56.401Z,15.00
2018-06-04T01:46:24.797Z,15.00
2018-06-04T01:48:53.305Z,14.90
2018-06-04T01:51:21.772Z,14.90
2018-06-04T01:53:50.297Z,14.80
2018-06-04T01:56:18.700Z,14.80
2018-06-04T01:58:47.149Z,14.70
2018-06-04T02:01:15.565Z,14.70
2018-06-04T02:03:44.000Z,14.70
2018-06-04T02:06:12.393Z,14.70
2018-06-04T02:08:40.804Z,14.70
2018-06-04T02:11:09.256Z,14.70
2018-06-04T02:13:37.713Z,14.70
2018-06-04T02:16:06.166Z,14.70
2018-06-04T02:18:34.565Z,14.70
2018-06-04T02:21:03.078Z,14.70
2018-06-04T02:23:31.473Z,14.60
2018-06-04T02:25:59.913Z,14.60
2018-06-04T02:28:28.321Z,14.60
2018-06-04T02:30:56.762Z,14.60
2018-06-04T02:33:25.165Z,14.60
2018-06-04T02:35:53.595Z,14.50
2018-06-04T02:38:22.040Z,14.50
2018-06-04T02:40:50.458Z,14.50
2018-06-04T02:43:18.867Z,14.50
2018-06-04T02:48:15.400Z,14.40
2018-06-04T02:53:12.005Z,14.30
2018-06-04T02:55:40.425Z,14.30
2018-06-04T03:00:37.073Z,14.30
2018-06-04T03:03:05.498Z,14.30
2018-06-04T03:05:33.937Z,14.20
2018-06-04T03:08:02.348Z,14.20
2018-06-04T03:10:30.765Z,14.10
2018-06-04T03:12:59.173Z,14.00
2018-06-04T03:15:27.625Z,13.90
2018-06-04T03:17:56.021Z,13.80
2018-06-04T03:20:24.469Z,13.80
2018-06-04T03:22:52.934Z,13.70
2018-06-04T03:25:21.401Z,13.70
2018-06-04T03:27:49.794Z,13.70
2018-06-04T03:30:18.225Z,13.80
2018-06-04T03:32:46.637Z,13.80
2018-06-04T03:35:15.037Z,13.80
2018-06-04T03:37:43.481Z,13.70
2018-06-04T03:40:11.869Z,13.70
2018-06-04T03:42:40.308Z,13.70
2018-06-04T03:45:08.753Z,13.70
2018-06-04T03:47:37.173Z,13.70
2018-06-04T03:50:05.615Z,13.80
2018-06-04T03:52:34.037Z,13.90
2018-06-04T03:55:02.508Z,13.90
2018-06-04T03:57:30.925Z,14.00
2018-06-04T03:59:59.314Z,13.90
2018-06-04T04:02:27.737Z,13.90
2018-06-04T04:04:56.141Z,13.90
2018-06-04T04:07:24.545Z,14.00
2018-06-04T04:09:52.955Z,14.00
2018-06-04T04:12:21.410Z,14.00
2018-06-04T04:14:49.817Z,14.00
2018-06-04T04:17:18.245Z,14.00
2018-06-04T04:19:46.687Z,14.00
2018-06-04T04:22:15.101Z,14.00
2018-06-04T04:24:43.535Z,14.00
2018-06-04T04:27:11.964Z,14.00
2018-06-04T04:29:40.373Z,14.10
2018-06-04T04:32:08.822Z,14.20
2018-06-04T04:34:37.225Z,14.20
2018-06-04T04:37:05.777Z,14.30
2018-06-04T04:39:34.165Z,14.40
2018-06-04T04:42:02.654Z,14.60
2018-06-04T04:44:31.091Z,14.60
2018-06-04T04:46:59.510Z,14.70
2018-06-04T04:49:27.971Z,14.90
2018-06-04T04:51:56.397Z,15.00
2018-06-04T04:54:24.849Z,15.20
2018-06-04T04:56:53.257Z,15.50
2018-06-04T04:59:21.710Z,15.60
2018-06-04T05:01:50.145Z,15.70
2018-06-04T05:04:18.632Z,15.70
2018-06-04T05:06:47.045Z,15.80
2018-06-04T05:09:15.465Z,16.00
2018-06-04T05:11:43.877Z,16.20
2018-06-04T05:14:12.400Z,16.40
2018-06-04T05:16:40.805Z,16.40
2018-06-04T05:19:09.277Z,16.50
2018-06-04T05:24:05.845Z,16.60
2018-06-04T05:26:34.465Z,16.70
2018-06-04T05:29:02.933Z,16.70
2018-06-04T05:31:31.359Z,16.80
2018-06-04T05:33:59.800Z,16.90
2018-06-04T05:36:28.189Z,17.00
2018-06-04T05:38:56.622Z,17.10
2018-06-04T05:41:25.153Z,17.20
2018-06-04T05:43:53.612Z,17.30
2018-06-04T05:46:22.020Z,17.30
2018-06-04T05:48:50.479Z,17.50
2018-06-04T05:51:18.874Z,17.50
2018-06-04T05:56:15.492Z,17.70
2018-06-04T05:58:44.015Z,17.90
2018-06-04T06:01:12.483Z,18.40
2018-06-04T06:03:40.910Z,18.70
2018-06-04T06:06:09.312Z,19.20
2018-06-04T06:08:37.752Z,19.40
2018-06-04T06:11:06.366Z,19.50
2018-06-04T06:13:34.865Z,20.60
2018-06-04T06:16:03.321Z,21.20
2018-06-04T06:18:31.753Z,21.50
2018-06-04T06:21:00.165Z,22.40
2018-06-04T06:23:28.577Z,22.50
2018-06-04T06:25:56.961Z,23.60
2018-06-04T06:28:25.545Z,24.30
2018-06-04T06:30:54.054Z,25.80
2018-06-04T06:33:22.428Z,26.10
2018-06-04T06:35:50.945Z,26.30
2018-06-04T06:38:19.336Z,26.80
2018-06-04T06:43:15.885Z,28.20
2018-06-04T06:45:44.329Z,28.40
2018-06-04T06:48:12.730Z,28.80
2018-06-04T06:50:41.187Z,29.70
2018-06-04T06:53:09.606Z,29.90
2018-06-04T06:55:38.071Z,29.80
2018-06-04T06:58:06.534Z,29.90
2018-06-04T07:00:35.063Z,29.60
2018-06-04T07:03:03.478Z,30.00
2018-06-04T07:05:31.911Z,31.50
2018-06-04T07:08:00.325Z,32.30
2018-06-04T07:10:28.736Z,32.60
2018-06-04T07:12:57.130Z,32.70
2018-06-04T07:15:25.565Z,31.80
2018-06-04T07:17:53.950Z,30.70
2018-06-04T07:20:22.404Z,30.70
2018-06-04T07:22:50.823Z,31.10
2018-06-04T07:25:19.289Z,31.40
2018-06-04T07:27:47.773Z,31.70
2018-06-04T07:30:16.193Z,31.90
2018-06-04T07:32:44.569Z,31.80
2018-06-04T07:35:12.980Z,32.90
2018-06-04T07:37:41.399Z,33.50
2018-06-04T07:40:09.844Z,34.20
2018-06-04T07:42:38.329Z,34.90
2018-06-04T07:45:06.829Z,35.50
2018-06-04T07:47:35.242Z,36.50
2018-06-04T07:50:03.702Z,36.90
2018-06-04T07:52:32.182Z,36.50
2018-06-04T07:55:00.667Z,33.90
2018-06-04T07:57:29.109Z,34.10
2018-06-04T07:59:57.519Z,34.50
2018-06-04T08:02:25.931Z,34.40
2018-06-04T08:04:54.342Z,33.60
2018-06-04T08:07:22.757Z,33.50
2018-06-04T08:09:51.167Z,33.50
2018-06-04T08:12:19.601Z,34.40
2018-06-04T08:14:48.109Z,34.80
2018-06-04T08:17:16.557Z,34.60
2018-06-04T08:19:44.968Z,33.40
2018-06-04T08:22:13.412Z,33.30
2018-06-04T08:24:41.803Z,33.40
2018-06-04T08:27:10.238Z,33.60
2018-06-04T08:29:38.642Z,34.20
2018-06-04T08:32:07.109Z,35.20
2018-06-04T08:34:35.510Z,35.90
2018-06-04T08:37:03.931Z,36.30
2018-06-04T08:39:32.321Z,36.30
2018-06-04T08:42:00.749Z,36.40
2018-06-04T08:44:29.137Z,36.10
2018-06-04T08:46:57.610Z,37.00
2018-06-04T08:49:26.019Z,37.00
2018-06-04T08:51:54.525Z,37.80
2018-06-04T08:54:23.000Z,38.20
2018-06-04T08:56:51.451Z,37.20
2018-06-04T08:59:19.869Z,36.80
2018-06-04T09:01:48.334Z,36.30
2018-06-04T09:04:16.725Z,35.80
2018-06-04T09:06:45.173Z,35.60
2018-06-04T09:09:13.600Z,35.20
2018-06-04T09:11:41.996Z,35.90
2018-06-04T09:14:10.448Z,36.00
2018-06-04T09:16:38.857Z,36.50
2018-06-04T09:19:07.462Z,35.90
2018-06-04T09:21:35.894Z,35.20
2018-06-04T09:24:04.365Z,35.10
2018-06-04T09:26:32.764Z,35.30
2018-06-04T09:29:01.185Z,36.20
2018-06-04T09:31:29.573Z,36.60
2018-06-04T09:33:57.997Z,36.70
2018-06-04T09:36:26.441Z,36.70
2018-06-04T09:38:54.887Z,36.80
2018-06-04T09:41:23.338Z,37.60
2018-06-04T09:43:51.804Z,37.10
2018-06-04T09:48:48.384Z,36.60
2018-06-04T09:51:16.777Z,36.30
2018-06-04T09:53:45.234Z,36.30
2018-06-04T09:56:13.650Z,36.50
2018-06-04T09:58:42.078Z,36.90
2018-06-04T10:01:10.496Z,36.80
2018-06-04T10:03:38.949Z,37.10
2018-06-04T10:06:07.369Z,37.10
2018-06-04T10:08:35.825Z,37.20
2018-06-04T10:11:04.254Z,36.90
2018-06-04T10:13:32.694Z,36.60
2018-06-04T10:16:01.158Z,36.70
2018-06-04T10:18:29.588Z,36.80
2018-06-04T10:20:58.031Z,36.70
2018-06-04T10:23:26.581Z,37.20
2018-06-04T10:25:54.993Z,38.40
2018-06-04T10:28:23.428Z,35.60
2018-06-04T10:30:51.873Z,34.60
2018-06-04T10:33:20.286Z,34.90
2018-06-04T10:35:48.770Z,35.00
2018-06-04T10:38:17.186Z,35.10
2018-06-04T10:40:45.653Z,35.10
2018-06-04T10:43:14.073Z,35.90
2018-06-04T10:45:42.507Z,35.80
2018-06-04T10:48:10.917Z,34.60
2018-06-04T10:50:39.371Z,33.70
2018-06-04T10:53:07.785Z,30.60
2018-06-04T10:55:36.240Z,29.90
2018-06-04T11:00:32.837Z,29.20
2018-06-04T11:03:01.238Z,28.50
2018-06-04T11:05:29.682Z,28.40
2018-06-04T11:07:58.089Z,28.00
2018-06-04T11:10:26.556Z,27.80
2018-06-04T11:12:54.961Z,27.80
2018-06-04T11:15:23.413Z,27.90
2018-06-04T11:17:51.840Z,27.90
2018-06-04T11:20:20.273Z,27.90
2018-06-04T11:22:48.709Z,27.50
2018-06-04T11:25:17.139Z,27.50
2018-06-04T11:27:45.573Z,27.50
2018-06-04T11:30:14.017Z,27.50
2018-06-04T11:32:42.434Z,27.50
2018-06-04T11:35:10.877Z,27.40
2018-06-04T11:37:39.278Z,27.40
2018-06-04T11:40:07.727Z,27.50
2018-06-04T11:42:36.296Z,27.50
2018-06-04T11:45:04.853Z,27.50
2018-06-04T11:47:33.254Z,27.50
2018-06-04T11:50:01.694Z,27.50
2018-06-04T11:52:30.117Z,27.20
2018-06-04T11:54:58.558Z,27.20
2018-06-04T11:57:27.009Z,27.20
2018-06-04T11:59:55.404Z,27.30
2018-06-04T12:02:23.848Z,27.40
2018-06-04T12:04:52.256Z,27.30
2018-06-04T12:07:20.679Z,27.30
2018-06-04T12:09:49.085Z,27.10
2018-06-04T12:12:17.524Z,27.00
2018-06-04T12:14:46.126Z,27.00
2018-06-04T12:17:14.793Z,27.00
2018-06-04T12:19:43.205Z,27.00
2018-06-04T12:22:11.652Z,27.10
2018-06-04T12:27:08.261Z,27.10
2018-06-04T12:29:36.666Z,27.10
2018-06-04T12:32:05.479Z,27.10
2018-06-04T12:34:33.893Z,27.00
2018-06-04T12:37:02.376Z,27.10
2018-06-04T12:39:30.777Z,27.00
2018-06-04T12:44:27.340Z,27.00
2018-06-04T12:46:55.799Z,26.80
2018-06-04T12:49:24.217Z,26.80
2018-06-04T12:51:52.670Z,26.90
2018-06-04T12:54:21.152Z,26.80
2018-06-04T12:56:49.629Z,26.70
2018-06-04T12:59:18.061Z,26.60
2018-06-04T13:01:46.506Z,26.70
2018-06-04T13:04:14.925Z,26.80
2018-06-04T13:06:43.370Z,26.80
2018-06-04T13:09:11.782Z,26.80
2018-06-04T13:11:40.237Z,26.80
2018-06-04T13:14:08.649Z,26.80
2018-06-04T13:16:37.069Z,26.70
2018-06-04T13:19:05.566Z,26.80
2018-06-04T13:21:34.019Z,26.80
2018-06-04T13:24:02.433Z,26.80
2018-06-04T13:26:30.859Z,26.80
2018-06-04T13:28:59.293Z,26.80
2018-06-04T13:31:27.780Z,26.80
2018-06-04T13:33:56.228Z,26.90
2018-06-04T13:36:24.644Z,26.70
2018-06-04T13:38:53.086Z,26.70
2018-06-04T13:41:21.573Z,26.60
2018-06-04T13:43:50.019Z,26.50
2018-06-04T13:46:18.541Z,26.60
2018-06-04T13:48:47.149Z,26.60
2018-06-04T13:51:15.612Z,26.60
2018-06-04T13:53:44.088Z,26.60
2018-06-04T13:56:12.631Z,26.70
2018-06-04T13:58:41.011Z,26.70
2018-06-04T14:01:09.436Z,26.80
2018-06-04T14:03:37.875Z,26.80
2018-06-04T14:06:06.552Z,26.70
2018-06-04T14:08:35.095Z,26.70
2018-06-04T14:11:03.521Z,26.70
2018-06-04T14:13:31.933Z,26.70
2018-06-04T14:16:00.373Z,26.70
2018-06-04T14:18:28.862Z,26.80
2018-06-04T14:23:25.517Z,26.70
2018-06-04T14:28:22.130Z,26.50
2018-06-04T14:30:50.813Z,26.40
2018-06-04T14:33:19.244Z,26.40
2018-06-04T14:35:47.888Z,26.50
2018-06-04T14:38:16.388Z,26.50
2018-06-04T14:40:44.785Z,26.50
2018-06-04T14:43:13.332Z,26.50
2018-06-04T14:45:41.790Z,26.40
2018-06-04T14:48:10.281Z,26.30
2018-06-04T14:50:38.709Z,26.30
2018-06-04T14:53:07.125Z,26.30
2018-06-04T14:55:35.572Z,26.40
2018-06-04T14:58:04.038Z,26.40
2018-06-04T15:00:32.503Z,26.40
2018-06-04T15:03:00.913Z,26.40
2018-06-04T15:05:29.349Z,26.40
2018-06-04T15:07:57.752Z,26.50
2018-06-04T15:10:26.189Z,26.50
2018-06-04T15:12:54.602Z,26.50
2018-06-04T15:15:23.164Z,26.50
2018-06-04T15:17:51.594Z,26.40
2018-06-04T15:20:20.054Z,26.40
2018-06-04T15:22:48.474Z,26.40
2018-06-04T15:25:16.909Z,26.40
2018-06-04T15:27:45.335Z,26.40
2018-06-04T15:30:13.769Z,26.40
2018-06-04T15:32:42.223Z,26.40
2018-06-04T15:35:10.629Z,26.40
2018-06-04T15:37:39.044Z,26.40
2018-06-04T15:40:07.497Z,26.40
2018-06-04T15:42:35.911Z,26.50
2018-06-04T15:45:04.422Z,26.40
2018-06-04T15:47:32.848Z,26.40
2018-06-04T15:50:01.281Z,26.40
2018-06-04T15:52:29.697Z,26.30
2018-06-04T15:54:58.162Z,26.20
2018-06-04T15:57:26.567Z,26.20
2018-06-04T15:59:55.004Z,26.20
2018-06-04T16:02:23.483Z,26.20
2018-06-04T16:04:51.932Z,26.30
2018-06-04T16:07:20.342Z,26.30
2018-06-04T16:09:48.797Z,26.30
2018-06-04T16:12:17.449Z,26.20
2018-06-04T16:14:45.850Z,26.30
2018-06-04T16:17:14.291Z,26.20
2018-06-04T16:19:42.693Z,26.20
2018-06-04T16:22:11.223Z,26.20
2018-06-04T16:24:39.620Z,26.20
2018-06-04T16:27:08.070Z,26.10
2018-06-04T16:29:36.520Z,26.10
2018-06-04T16:32:04.979Z,26.10
2018-06-04T16:34:33.406Z,26.00
2018-06-04T16:37:01.861Z,26.00
2018-06-04T16:39:30.297Z,26.00
2018-06-04T16:41:58.724Z,26.10
2018-06-04T16:44:27.193Z,26.10
2018-06-04T16:46:55.639Z,26.00
2018-06-04T16:49:24.029Z,26.00
2018-06-04T16:51:52.464Z,25.90
2018-06-04T16:54:20.900Z,25.90
2018-06-04T16:56:49.330Z,25.90
2018-06-04T16:59:17.760Z,25.80
2018-06-04T17:01:46.388Z,25.80
2018-06-04T17:04:14.784Z,25.80
2018-06-04T17:06:43.205Z,25.80
2018-06-04T17:09:11.882Z,25.80
2018-06-04T17:11:40.333Z,25.80
2018-06-04T17:14:08.732Z,25.80
2018-06-04T17:16:37.213Z,25.80
2018-06-04T17:19:05.665Z,25.80
2018-06-04T17:21:34.070Z,25.70
2018-06-04T17:24:02.529Z,25.70
2018-06-04T17:26:30.946Z,25.70
2018-06-04T17:28:59.385Z,25.70
2018-06-04T17:31:27.795Z,25.70
2018-06-04T17:33:56.481Z,25.70
2018-06-04T17:36:24.981Z,25.50
2018-06-04T17:38:53.413Z,25.50
2018-06-04T17:41:21.829Z,25.50
2018-06-04T17:43:50.297Z,25.50
2018-06-04T17:46:18.744Z,25.50
2018-06-04T17:48:47.204Z,25.40
2018-06-04T17:51:15.592Z,25.30
2018-06-04T17:53:44.045Z,25.20
2018-06-04T17:56:12.481Z,25.20
2018-06-04T17:58:40.939Z,25.20
2018-06-04T18:01:09.409Z,25.10
2018-06-04T18:03:37.900Z,25.00
2018-06-04T18:06:06.313Z,25.00
2018-06-04T18:08:34.770Z,25.00
2018-06-04T18:11:03.198Z,24.90
2018-06-04T18:13:31.733Z,24.80
2018-06-04T18:16:00.134Z,24.80
2018-06-04T18:18:28.561Z,24.80
2018-06-04T18:20:57.075Z,24.70
2018-06-04T18:23:25.505Z,24.70
2018-06-04T18:25:54.031Z,24.70
2018-06-04T18:28:22.437Z,24.60
2018-06-04T18:30:50.867Z,24.40
2018-06-04T18:33:19.297Z,24.40
2018-06-04T18:35:47.717Z,24.40
2018-06-04T18:38:16.133Z,24.20
2018-06-04T18:40:44.575Z,24.10
2018-06-04T18:43:12.984Z,24.00
2018-06-04T18:45:41.430Z,24.00
2018-06-04T18:48:09.852Z,23.90
2018-06-04T18:50:38.278Z,23.90
2018-06-04T18:53:06.685Z,23.70
2018-06-04T18:55:35.171Z,23.70
2018-06-04T18:58:03.619Z,23.60
2018-06-04T19:00:32.065Z,23.50
2018-06-04T19:03:00.492Z,23.40
2018-06-04T19:05:28.945Z,23.30
2018-06-04T19:07:57.402Z,23.30
2018-06-04T19:10:25.871Z,23.20
2018-06-04T19:12:54.260Z,23.10
2018-06-04T19:15:24.113Z,23.10
2018-06-04T19:17:52.521Z,23.00
2018-06-04T19:20:20.961Z,23.00
2018-06-04T19:22:49.394Z,22.80
2018-06-04T19:25:17.892Z,22.80
2018-06-04T19:30:14.441Z,22.70
2018-06-04T19:32:42.956Z,22.70
2018-06-04T19:35:11.393Z,22.60
2018-06-04T19:37:39.857Z,22.60
2018-06-04T19:40:08.317Z,22.40
2018-06-04T19:42:36.761Z,22.30
2018-06-04T19:45:05.196Z,22.20
2018-06-04T19:47:33.617Z,22.20
2018-06-04T19:50:02.021Z,22.10
2018-06-04T19:52:30.457Z,22.00
2018-06-04T19:54:58.932Z,21.90
2018-06-04T19:57:27.415Z,21.80
2018-06-04T19:59:55.894Z,21.80
2018-06-04T20:02:24.329Z,21.70
2018-06-04T20:04:52.798Z,21.70
2018-06-04T20:07:21.192Z,21.70
2018-06-04T20:12:17.745Z,21.60
2018-06-04T20:14:46.152Z,21.60
2018-06-04T20:17:14.576Z,21.60
2018-06-04T20:19:43.069Z,21.50
2018-06-04T20:22:11.485Z,21.50
2018-06-04T20:24:39.921Z,21.50
2018-06-04T20:29:36.509Z,21.30
2018-06-04T20:32:04.921Z,21.30
2018-06-04T20:34:33.361Z,21.30
2018-06-04T20:37:01.814Z,21.20
2018-06-04T20:39:30.260Z,21.20
2018-06-04T20:41:58.705Z,21.10
2018-06-04T20:44:27.186Z,21.10
2018-06-04T20:46:55.698Z,21.00
2018-06-04T20:49:24.125Z,20.90
2018-06-04T20:51:52.562Z,20.90
2018-06-04T20:56:49.497Z,20.70
2018-06-04T20:59:17.951Z,20.70
2018-06-04T21:01:46.353Z,20.60
2018-06-04T21:04:14.804Z,20.60
2018-06-04T21:06:43.255Z,20.50
2018-06-04T21:09:11.848Z,20.50
2018-06-04T21:11:40.281Z,20.30
2018-06-04T21:14:08.727Z,20.20
2018-06-04T21:16:37.181Z,20.20
2018-06-04T21:19:05.605Z,20.10
2018-06-04T21:21:34.001Z,20.10
2018-06-04T21:24:02.438Z,20.10
2018-06-04T21:26:30.916Z,20.00
2018-06-04T21:28:59.351Z,20.00
2018-06-04T21:31:27.755Z,20.00
2018-06-04T21:33:56.189Z,19.90
2018-06-04T21:36:24.595Z,19.90
2018-06-04T21:38:53.029Z,19.90
2018-06-04T21:41:21.449Z,19.90
2018-06-04T21:43:49.890Z,19.90
2018-06-04T21:46:18.308Z,19.90
2018-06-04T21:48:48.103Z,19.90
2018-06-04T21:51:16.785Z,19.90
2018-06-04T21:53:45.218Z,19.80
2018-06-04T21:56:13.680Z,19.80
2018-06-04T21:58:42.116Z,19.80
2018-06-04T22:01:10.529Z,19.80
2018-06-04T22:06:07.148Z,19.50
2018-06-04T22:08:35.561Z,19.50
2018-06-04T22:11:04.007Z,19.40
2018-06-04T22:13:32.400Z,19.40
2018-06-04T22:16:00.850Z,19.40
2018-06-04T22:18:29.260Z,19.30
2018-06-04T22:20:57.908Z,19.30
2018-06-04T22:23:26.320Z,19.20
2018-06-04T22:25:54.780Z,19.10
2018-06-04T22:28:23.182Z,19.00
2018-06-04T22:30:51.636Z,19.00
2018-06-04T22:33:20.069Z,19.10
2018-06-04T22:35:48.481Z,19.10
2018-06-04T22:38:16.944Z,19.10
2018-06-04T22:40:45.342Z,19.10
2018-06-04T22:43:13.768Z,19.10
2018-06-04T22:45:42.200Z,19.20
2018-06-04T22:48:10.628Z,19.20
2018-06-04T22:53:07.212Z,19.20
2018-06-04T22:55:35.653Z,19.20
2018-06-04T23:00:34.027Z,19.10
2018-06-04T23:03:02.601Z,19.00
2018-06-04T23:05:31.024Z,18.80
2018-06-04T23:07:59.505Z,18.80
2018-06-04T23:10:27.922Z,18.70
2018-06-04T23:12:56.408Z,18.60
2018-06-04T23:15:24.817Z,18.50
2018-06-04T23:17:53.252Z,18.50
2018-06-04T23:20:21.661Z,18.50
2018-06-04T23:22:50.123Z,18.50
2018-06-04T23:25:18.572Z,18.50
2018-06-04T23:27:46.989Z,18.50
2018-06-04T23:30:15.466Z,18.50
2018-06-04T23:32:43.885Z,18.50
2018-06-04T23:35:12.320Z,18.40
2018-06-04T23:40:08.872Z,18.40
2018-06-04T23:42:37.361Z,18.40
2018-06-04T23:45:05.809Z,18.40
2018-06-04T23:50:02.372Z,18.40
2018-06-04T23:52:30.773Z,18.30
2018-06-04T23:54:59.254Z,18.30
2018-06-04T23:57:27.769Z,18.20
2018-06-04T23:59:56.216Z,18.10
